Latest Weather Observations for Gatton

IDQ60801

Issued at 6:32 am EST Wednesday 28 June 2017 (issued every 30 minutes, with the page automatically refreshed every 10 minutes)

About weather observations | Map of weather stations | Latest weather observations for QLD | Other Formats
Station Details ID: 040082 Name: UNIVERSITY OF QUEENSLAND GATTON Lat: -27.54 Lon: 152.34 Height: 89.0 m
Data from the previous 72 hours. | See also: Recent months at Gatton
Date/Time
EST
Temp
°C
App
Temp
°C
Dew
Point
°C
Rel
Hum
%
Delta-T
°C
Wind Press
QNH
hPa
Press
MSL
hPa
Rain since
9am
mm
Dir  Spd
km/h
Gust
km/h
Spd
kts
Gust
kts
28/06:30am 10.8 9.1 10.0 95 0.4 W 9 13 5 7 - - 0.0
28/06:00am 11.1 9.1 10.3 95 0.4 W 11 13 6 7 - - 0.0
28/05:30am 11.2 10.0 10.4 95 0.4 WSW 7 11 4 6 - - 0.0
28/05:00am 11.2 10.0 10.4 95 0.4 W 7 9 4 5 - - 0.0
28/04:30am 11.5 10.4 10.7 95 0.4 W 7 9 4 5 - - 0.0
28/04:00am 11.3 9.8 10.4 94 0.5 W 9 11 5 6 - - 0.0
28/03:30am 11.8 10.4 11.0 95 0.4 WSW 9 13 5 7 - - 0.0
28/03:00am 11.5 10.4 10.7 95 0.4 WSW 7 11 4 6 - - 0.0
28/02:30am 10.7 9.3 9.5 92 0.6 WSW 7 9 4 5 - - 0.0
28/02:00am 10.9 9.7 9.5 91 0.7 WSW 6 7 3 4 - - 0.0
28/01:30am 11.3 10.3 10.2 93 0.6 WSW 6 7 3 4 - - 0.0
28/01:00am 11.0 10.9 9.6 91 0.7 CALM 0 4 0 2 - - 0.0
28/12:30am 11.7 11.8 10.3 91 0.7 CALM 0 0 0 0 - - 0.0
28/12:00am 11.6 11.6 9.7 88 1.0 CALM 0 0 0 0 - - 0.0
 
Date/Time
EST
Temp
°C
App
Temp
°C
Dew
Point
°C
Rel
Hum
%
Delta-T
°C
Wind Press
QNH
hPa
Press
MSL
hPa
Rain since
9am
mm
Dir  Spd
km/h
Gust
km/h
Spd
kts
Gust
kts
27/11:30pm 12.3 12.3 9.9 85 1.2 CALM 0 0 0 0 - - 0.0
27/11:00pm 13.7 14.0 10.9 83 1.5 CALM 0 0 0 0 - - 0.0
27/10:30pm 15.1 15.9 12.4 84 1.5 CALM 0 0 0 0 - - 0.0
27/10:00pm 15.5 15.3 13.0 85 1.4 WSW 6 7 3 4 - - 0.0
27/09:30pm 15.4 15.0 12.9 85 1.4 NNW 7 7 4 4 - - 0.0
27/09:00pm 15.8 16.3 12.7 82 1.7 N 2 6 1 3 - - 0.0
27/08:30pm 17.1 17.0 13.8 81 1.9 E 7 11 4 6 - - 0.0
27/08:00pm 16.7 16.6 13.2 80 2.0 N 6 7 3 4 - - 0.0
27/07:30pm 17.0 16.8 13.7 81 1.9 ESE 7 11 4 6 - - 0.0
27/07:00pm 16.7 16.4 13.2 80 2.0 SE 7 9 4 5 - - 0.0
27/06:30pm 15.4 14.8 11.6 78 2.1 SE 6 7 3 4 - - 0.0
27/06:00pm 16.6 15.6 12.2 75 2.4 E 9 11 5 6 - - 0.0
27/05:30pm 18.2 17.5 13.1 72 2.9 ENE 9 13 5 7 - - 0.0
27/05:00pm 19.5 18.6 13.7 69 3.3 E 11 15 6 8 - - 0.0
27/04:30pm 20.0 19.3 13.2 65 3.9 NE 9 13 5 7 - - 0.0
27/04:00pm 21.4 20.3 13.1 59 4.8 ENE 11 15 6 8 - - 0.0
27/03:30pm 21.2 20.2 13.4 61 4.5 E 11 17 6 9 - - 0.0
27/03:00pm 21.1 20.0 13.0 60 4.6 NE 11 17 6 9 - - 0.0
27/02:30pm 22.1 20.5 12.9 56 5.3 ENE 13 20 7 11 - - 0.0
27/02:00pm 21.9 20.5 13.3 58 5.0 ENE 13 17 7 9 - - 0.0
27/01:30pm 22.1 21.3 12.9 56 5.3 ENE 9 15 5 8 - - 0.0
27/01:00pm 21.8 20.8 12.4 55 5.3 NE 9 15 5 8 - - 0.0
27/12:30pm 20.6 19.5 11.8 57 4.9 NNE 9 13 5 7 - - 0.0
27/12:00pm 20.4 20.2 11.9 58 4.8 N 4 9 2 5 - - 0.0
27/11:30am 19.3 18.3 11.1 59 4.5 N 7 9 4 5 - - 0.0
27/11:00am 17.5 16.4 10.1 62 3.9 W 6 11 3 6 - - 0.0
27/10:30am 16.8 16.6 10.4 66 3.4 NW 2 9 1 5 - - 0.0
27/10:00am 15.3 14.2 9.9 70 2.8 W 6 9 3 5 - - 0.0
27/09:30am 13.8 12.4 9.6 76 2.2 WSW 7 9 4 5 - - 0.0
27/09:00am 11.8 10.2 8.6 81 1.6 W 7 9 4 5 - - 0.0
27/08:30am 11.3 9.9 8.7 84 1.3 W 6 7 3 4 - - 0.0
27/08:00am 10.4 8.7 8.3 87 1.0 W 7 9 4 5 - - 0.0
27/07:30am 9.4 8.1 7.7 89 0.8 WSW 4 7 2 4 - - 0.0
27/07:00am 8.8 6.8 7.1 89 0.8 WSW 7 11 4 6 - - 0.0
27/06:30am 8.2 5.3 6.7 90 0.7 W 11 15 6 8 - - 0.0
27/06:00am 7.9 5.4 6.4 90 0.7 W 9 11 5 6 - - 0.0
27/05:30am 8.0 5.1 6.5 90 0.7 W 11 13 6 7 - - 0.0
27/05:00am 8.3 5.5 6.9 91 0.7 W 11 15 6 8 - - 0.0
27/04:30am 8.1 5.6 6.6 90 0.7 W 9 13 5 7 - - 0.0
27/04:00am 8.2 5.7 6.5 89 0.8 W 9 13 5 7 - - 0.0
27/03:30am 8.7 5.5 7.0 89 0.8 W 13 15 7 8 - - 0.0
27/03:00am 8.8 6.0 6.9 88 0.9 W 11 13 6 7 - - 0.0
27/02:30am 8.9 5.7 6.9 87 0.9 W 13 15 7 8 - - 0.0
27/02:00am 8.9 6.1 6.9 87 0.9 W 11 17 6 9 - - 0.0
27/01:30am 9.1 6.7 6.9 86 1.0 WSW 9 13 5 7 - - 0.0
27/01:00am 9.4 6.6 7.0 85 1.1 WSW 11 15 6 8 - - 0.0
27/12:30am 9.7 7.0 7.5 86 1.1 W 11 13 6 7 - - 0.0
27/12:00am 9.9 7.2 7.5 85 1.1 W 11 13 6 7 - - 0.0
 
Date/Time
EST
Temp
°C
App
Temp
°C
Dew
Point
°C
Rel
Hum
%
Delta-T
°C
Wind Press
QNH
hPa
Press
MSL
hPa
Rain since
9am
mm
Dir  Spd
km/h
Gust
km/h
Spd
kts
Gust
kts
26/11:30pm 10.1 8.0 8.2 88 0.9 WSW 9 13 5 7 - - 0.0
26/11:00pm 8.6 6.2 7.1 90 0.7 WSW 9 11 5 6 - - 0.0
26/10:30pm 8.8 6.9 6.9 88 0.9 SW 6 7 3 4 - - 0.0
26/10:00pm 9.1 7.2 6.7 85 1.1 WSW 6 7 3 4 - - 0.0
26/09:30pm 9.0 8.2 6.3 83 1.2 CALM 0 0 0 0 - - 0.0
26/09:00pm 9.9 7.9 7.0 82 1.4 WSW 7 7 4 4 - - 0.0
26/08:30pm 10.5 8.7 7.2 80 1.6 SSW 6 7 3 4 - - 0.0
26/08:00pm 11.1 9.4 7.4 78 1.8 SSW 6 7 3 4 - - 0.0
26/07:30pm 12.3 11.9 8.4 77 1.9 CALM 0 6 0 3 - - 0.0
26/07:00pm 13.1 11.6 9.2 77 2.0 SE 7 11 4 6 - - 0.0
26/06:30pm 12.4 11.7 6.9 69 2.6 CALM 0 0 0 0 - - 0.0
26/06:00pm 13.9 13.3 7.2 64 3.3 CALM 0 0 0 0 - - 0.0
26/05:30pm 16.9 15.1 8.1 56 4.5 ENE 7 7 4 4 - - 0.0
26/05:00pm 19.8 18.1 8.2 47 6.0 NE 7 9 4 5 - - 0.0
26/04:30pm 21.4 19.3 8.3 43 6.9 NNE 9 11 5 6 - - 0.0
26/04:00pm 23.8 21.3 8.2 37 8.3 ENE 11 15 6 8 - - 0.0
26/03:30pm 24.3 22.3 8.7 37 8.4 ENE 9 17 5 9 - - 0.0
26/03:00pm 25.0 22.9 8.1 34 9.0 N 9 13 5 7 - - 0.0
26/02:30pm 25.5 23.4 8.1 33 9.3 ENE 9 19 5 10 - - 0.0
26/02:00pm 25.0 23.3 8.5 35 8.9 NNE 7 13 4 7 - - 0.0
26/01:30pm 24.4 22.4 8.8 37 8.4 NNE 9 15 5 8 - - 0.0
26/01:00pm 23.7 22.2 10.4 43 7.4 NNE 9 13 5 7 - - 0.0
26/12:30pm 23.2 22.3 11.3 47 6.7 N 7 11 4 6 - - 0.0
26/12:00pm 22.1 21.4 11.5 51 5.9 N 6 11 3 6 - - 0.0
26/11:30am 21.0 20.6 12.4 58 4.9 NNE 6 11 3 6 - - 0.0
26/11:00am 20.0 19.5 12.5 62 4.2 NNE 7 11 4 6 - - 0.0
26/10:30am 18.6 18.4 11.7 64 3.8 NNE 4 7 2 4 - - 0.0
26/10:00am 17.0 15.9 10.8 67 3.3 N 7 9 4 5 - - 0.0
26/09:30am 15.4 14.7 10.2 71 2.7 NW 4 7 2 4 - - 0.0
26/09:00am 13.2 12.3 9.3 77 2.0 NW 4 9 2 5 - - 0.0
26/08:30am 11.5 10.0 9.1 85 1.2 WSW 7 9 4 5 - - 0.0
26/08:00am 9.5 7.3 7.8 89 0.8 W 9 11 5 6 - - 0.0
26/07:30am 7.9 5.5 7.0 94 0.4 W 9 11 5 6 - - 0.0
26/07:00am 6.5 4.3 5.5 93 0.4 W 6 9 3 5 - - 0.0
26/06:30am 6.6 4.5 5.6 93 0.4 W 6 9 3 5 - - 0.0
26/06:00am 6.7 4.5 5.5 92 0.5 W 6 7 3 4 - - 0.0
26/05:30am 7.1 4.5 5.9 92 0.5 W 9 11 5 6 - - 0.0
26/05:00am 7.6 4.7 6.4 92 0.6 W 11 13 6 7 - - 0.0
26/04:30am 7.7 4.8 6.5 92 0.6 W 11 13 6 7 - - 0.0
26/04:00am 7.8 4.9 6.4 91 0.6 W 11 13 6 7 - - 0.0
26/03:30am 8.3 5.5 6.9 91 0.7 W 11 15 6 8 - - 0.0
26/03:00am 8.6 6.2 7.2 91 0.7 W 9 13 5 7 - - 0.0
26/02:30am 8.8 6.5 7.3 90 0.7 WSW 9 11 5 6 - - 0.0
26/02:00am 9.2 6.9 7.6 90 0.8 W 9 11 5 6 - - 0.0
26/01:30am 9.2 6.5 7.5 89 0.8 W 11 13 6 7 - - 0.0
26/01:00am 9.7 7.1 7.8 88 0.9 W 11 13 6 7 - - 0.0
26/12:30am 10.1 7.6 8.0 87 1.0 W 11 15 6 8 - - 0.0
26/12:00am 10.1 7.9 7.9 86 1.1 W 9 11 5 6 - - 0.0
 
Date/Time
EST
Temp
°C
App
Temp
°C
Dew
Point
°C
Rel
Hum
%
Delta-T
°C
Wind Press
QNH
hPa
Press
MSL
hPa
Rain since
9am
mm
Dir  Spd
km/h
Gust
km/h
Spd
kts
Gust
kts
25/11:30pm 10.1 7.9 7.9 86 1.1 WSW 9 13 5 7 - - 0.0
25/11:00pm 10.4 8.6 8.0 85 1.2 W 7 9 4 5 - - 0.0
25/10:30pm 10.7 8.6 8.1 84 1.3 W 9 11 5 6 - - 0.0
25/10:00pm 9.3 7.3 7.3 87 0.9 W 7 11 4 6 - - 0.0
25/09:30pm 9.5 7.4 6.6 82 1.4 WSW 7 9 4 5 - - 0.0
25/09:00pm 10.5 9.0 9.1 91 0.7 WSW 7 11 4 6 - - 0.0
25/08:30pm 9.8 8.0 7.1 83 1.3 W 6 7 3 4 - - 0.0
25/08:00pm 9.7 8.6 7.0 83 1.3 W 2 9 1 5 - - 0.0
25/07:30pm 10.2 9.5 7.1 81 1.5 CALM 0 0 0 0 - - 0.0
25/07:00pm 11.4 11.0 8.1 80 1.6 CALM 0 2 0 1 - - 0.0
25/06:30pm 12.6 11.0 7.9 73 2.3 SW 6 7 3 4 - - 0.0
25/06:00pm 14.2 12.6 8.6 69 2.8 S 7 7 4 4 - - 0.0
25/05:30pm 15.6 13.8 8.1 61 3.8 ESE 7 7 4 4 - - 0.0
25/05:00pm 18.8 17.4 8.7 52 5.3 NNE 6 9 3 5 - - 0.0
25/04:30pm 21.6 19.7 9.2 45 6.6 NE 9 13 5 7 - - 0.0
25/04:00pm 22.5 20.2 9.0 42 7.2 NNE 11 15 6 8 - - 0.0
25/03:30pm 23.1 20.6 8.4 39 7.8 NE 11 15 6 8 - - 0.0
25/03:00pm 23.3 20.8 8.2 38 8.0 NE 11 15 6 8 - - 0.0
25/02:30pm 23.3 20.8 8.2 38 8.0 NE 11 15 6 8 - - 0.0
25/02:00pm 22.7 21.0 8.4 40 7.6 NE 7 13 4 7 - - 0.0
25/01:30pm 22.6 20.8 9.4 43 7.1 NNE 9 15 5 8 - - 0.0
25/01:00pm 22.6 21.0 10.1 45 6.8 NNE 9 15 5 8 - - 0.0
25/12:30pm 21.8 20.1 9.7 46 6.5 NE 9 13 5 7 - - 0.0
25/12:00pm 21.2 19.3 9.1 46 6.5 NNE 9 13 5 7 - - 0.0
25/11:30am 20.2 18.4 9.5 50 5.7 NNE 9 13 5 7 - - 0.0
25/11:00am 19.3 18.2 10.0 55 5.0 ENE 6 9 3 5 - - 0.0
25/10:30am 17.7 16.8 9.3 58 4.4 E 4 7 2 4 - - 0.0
25/10:00am 17.1 16.3 9.8 62 3.9 SSE 4 7 2 4 - - 0.0
25/09:30am 14.8 12.8 8.5 66 3.2 WSW 9 13 5 7 - - 0.0
25/09:00am 12.8 10.6 7.7 71 2.5 WSW 9 13 5 7 - - 0.0
25/08:30am 11.3 9.3 7.2 76 2.0 WSW 7 9 4 5 - - 0.0
25/08:00am 9.5 7.0 6.4 81 1.4 W 9 13 5 7 - - 0.0
25/07:30am 7.8 5.1 5.6 86 1.0 W 9 11 5 6 - - 0.0
25/07:00am 6.1 3.5 4.3 88 0.8 W 7 9 4 5 - - 0.0

Other Formats:

Comma delimited format used in spreadsheet applications
http://www.bom.gov.au/fwo/IDQ60801/IDQ60801.94562.axf

JavaScript Object Notation format (JSON) in row-major order
http://www.bom.gov.au/fwo/IDQ60801/IDQ60801.94562.json